Time;durP1;ratioP1;P1;durP2;ratioP2;P2;SDS_P1;SDS_P2;PMS_P1;PMS_P2;Temp;Humidity;BMP_temperature;BMP_pressure;BME280_temperature;BME280_humidity;BME280_pressure;Samples;Min_cycle;Max_cycle;Signal;HPM_P1;HPM_P2
2022/11/28 00:00:29;;;;;;;7.37;6.67;;;6.50;98.10;;;;;;5020815;28;20465;-75
2022/11/28 00:02:56;;;;;;;7.90;7.20;;;6.50;98.00;;;;;;5022051;28;20436;-74
2022/11/28 00:05:23;;;;;;;7.40;6.70;;;6.60;97.80;;;;;;5024211;28;20441;-74
2022/11/28 00:07:50;;;;;;;7.80;7.00;;;6.60;97.80;;;;;;5021661;28;20423;-74
2022/11/28 00:10:18;;;;;;;7.55;6.80;;;6.60;97.70;;;;;;5021105;28;20446;-74
2022/11/28 00:12:45;;;;;;;8.45;7.53;;;6.60;98.00;;;;;;5021304;28;20963;-75
2022/11/28 00:15:12;;;;;;;8.20;7.47;;;6.60;97.90;;;;;;5025747;28;20445;-77
2022/11/28 00:17:39;;;;;;;8.32;7.60;;;6.60;98.20;;;;;;5033863;28;20434;-76
2022/11/28 00:20:07;;;;;;;8.50;7.70;;;6.60;98.30;;;;;;5031235;28;20430;-76
2022/11/28 00:22:33;;;;;;;7.40;6.70;;;6.60;98.30;;;;;;5015498;28;20435;-75
2022/11/28 00:25:00;;;;;;;8.32;7.63;;;6.60;98.20;;;;;;5021127;28;20435;-75
2022/11/28 00:27:28;;;;;;;8.57;7.68;;;6.50;98.40;;;;;;5015270;28;20490;-75
2022/11/28 00:29:55;;;;;;;7.90;7.10;;;6.50;98.60;;;;;;5014646;28;20434;-75
2022/11/28 00:32:22;;;;;;;9.25;8.35;;;6.50;98.60;;;;;;5023575;28;20435;-75
2022/11/28 00:34:49;;;;;;;10.00;8.65;;;6.50;98.80;;;;;;5012986;28;20441;-75
2022/11/28 00:37:15;;;;;;;8.37;7.57;;;6.50;99.00;;;;;;5015599;28;20444;-75
2022/11/28 00:39:42;;;;;;;8.50;7.80;;;6.50;99.20;;;;;;5020590;28;20431;-75
2022/11/28 00:42:09;;;;;;;8.43;7.63;;;6.50;99.40;;;;;;5019525;28;20462;-75
2022/11/28 00:44:37;;;;;;;8.23;7.38;;;6.50;99.50;;;;;;5018314;28;20465;-76
2022/11/28 00:47:04;;;;;;;8.00;7.30;;;6.50;99.60;;;;;;5020735;28;20423;-76
2022/11/28 00:49:31;;;;;;;8.50;7.70;;;6.50;99.70;;;;;;5018578;28;20886;-74
2022/11/28 00:51:57;;;;;;;7.70;7.00;;;6.50;99.80;;;;;;5022656;28;20802;-75
2022/11/28 00:54:24;;;;;;;8.50;7.70;;;6.40;99.70;;;;;;5017441;28;20740;-75
2022/11/28 00:56:51;;;;;;;8.43;7.72;;;6.50;99.60;;;;;;5020908;28;20456;-75
2022/11/28 00:59:18;;;;;;;8.95;7.90;;;6.40;99.70;;;;;;5017563;28;20475;-75
2022/11/28 01:01:46;;;;;;;8.73;7.93;;;6.50;99.90;;;;;;5015857;28;20950;-75
2022/11/28 01:04:16;;;;;;;8.65;7.88;;;6.40;99.90;;;;;;5008596;28;20496;-76
2022/11/28 01:06:44;;;;;;;8.63;7.75;;;6.40;99.90;;;;;;5022239;28;20431;-75
2022/11/28 01:09:14;;;;;;;8.57;7.80;;;6.40;99.90;;;;;;5020765;28;20443;-75
2022/11/28 01:11:42;;;;;;;9.35;8.18;;;6.40;99.90;;;;;;5020344;28;20454;-75
2022/11/28 01:14:10;;;;;;;9.07;8.18;;;6.40;99.90;;;;;;5021705;28;20458;-75
2022/11/28 01:16:36;;;;;;;8.55;7.72;;;6.40;99.90;;;;;;5020413;28;20902;-75
2022/11/28 01:19:05;;;;;;;9.20;8.27;;;6.40;99.90;;;;;;5018362;28;20538;-74
2022/11/28 01:21:31;;;;;;;8.65;7.75;;;6.40;99.90;;;;;;5017311;28;20440;-74
2022/11/28 01:23:58;;;;;;;8.77;7.80;;;6.40;99.90;;;;;;5018035;28;20442;-74
2022/11/28 01:26:27;;;;;;;9.98;9.00;;;6.40;99.90;;;;;;5023592;28;20430;-74
2022/11/28 01:28:55;;;;;;;8.70;7.90;;;6.40;99.90;;;;;;5019689;28;20438;-75
2022/11/28 01:31:24;;;;;;;9.13;8.23;;;6.40;99.90;;;;;;5014280;28;20470;-74
2022/11/28 01:33:51;;;;;;;9.17;8.37;;;6.40;99.90;;;;;;5018845;28;20427;-74
2022/11/28 01:36:21;;;;;;;8.68;7.78;;;6.40;99.90;;;;;;5022317;28;20433;-74
2022/11/28 01:38:48;;;;;;;9.60;8.70;;;6.40;99.90;;;;;;5016402;28;20765;-74
2022/11/28 01:41:16;;;;;;;9.68;8.77;;;6.40;99.90;;;;;;5018225;28;20542;-75
2022/11/28 01:43:59;;;;;;;9.35;8.45;;;6.40;99.90;;;;;;5013615;28;20504;-74
2022/11/28 01:46:26;;;;;;;9.20;8.30;;;6.40;99.90;;;;;;5009440;28;20438;-75
2022/11/28 01:48:56;;;;;;;8.90;7.72;;;6.40;99.90;;;;;;5013681;28;20432;-74
2022/11/28 01:51:24;;;;;;;9.35;8.45;;;6.40;99.90;;;;;;5021156;28;20449;-74
2022/11/28 01:53:52;;;;;;;9.48;8.57;;;6.40;99.90;;;;;;5015668;28;20436;-75
2022/11/28 01:56:23;;;;;;;9.88;8.98;;;6.40;99.90;;;;;;5032819;28;20466;-75
2022/11/28 01:58:54;;;;;;;9.30;8.40;;;6.40;99.90;;;;;;5034876;28;20428;-74
2022/11/28 02:01:23;;;;;;;9.17;7.90;;;6.40;99.90;;;;;;5026410;28;20538;-75
2022/11/28 02:03:51;;;;;;;9.35;8.45;;;6.40;99.90;;;;;;5012321;28;20444;-74
2022/11/28 02:06:22;;;;;;;8.43;7.72;;;6.40;99.90;;;;;;5020509;28;20442;-75
2022/11/28 02:08:52;;;;;;;9.00;8.10;;;6.40;99.90;;;;;;5017601;28;20433;-74
2022/11/28 02:11:38;;;;;;;8.63;7.93;;;6.40;99.90;;;;;;5021513;28;20459;-75
2022/11/28 02:14:16;;;;;;;9.48;8.57;;;6.40;99.90;;;;;;5012836;28;20523;-75
2022/11/28 02:16:55;;;;;;;10.23;8.88;;;6.30;99.90;;;;;;5015460;28;20441;-74
2022/11/28 02:20:09;;;;;;;9.90;8.90;;;6.30;99.90;;;;;;5016124;28;20806;-74
2022/11/28 02:22:41;;;;;;;9.05;8.15;;;6.30;99.90;;;;;;4932706;28;20497;-75
2022/11/28 02:25:40;;;;;;;9.35;8.45;;;6.30;99.90;;;;;;5013226;28;20439;-75
2022/11/28 02:28:42;;;;;;;9.70;8.70;;;6.30;99.90;;;;;;5016590;28;20518;-74
2022/11/28 02:31:25;;;;;;;9.13;8.33;;;6.30;99.90;;;;;;4991259;28;20442;-74
2022/11/28 02:33:56;;;;;;;9.68;8.65;;;6.30;99.90;;;;;;5018661;28;20439;-74
2022/11/28 02:36:32;;;;;;;10.63;9.73;;;6.30;99.90;;;;;;5016400;28;20451;-74
2022/11/28 02:39:11;;;;;;;10.40;9.45;;;6.40;99.90;;;;;;5017333;28;20518;-74
2022/11/28 02:41:44;;;;;;;10.27;9.38;;;6.40;99.90;;;;;;5023274;28;20801;-74
2022/11/28 02:44:15;;;;;;;9.50;8.60;;;6.40;99.90;;;;;;5021192;28;20438;-74
2022/11/28 02:46:48;;;;;;;9.60;8.73;;;6.40;99.90;;;;;;5019705;28;20442;-73
2022/11/28 02:49:23;;;;;;;9.10;8.20;;;6.40;99.90;;;;;;5019026;28;20441;-74
2022/11/28 02:51:55;;;;;;;9.07;7.93;;;6.40;99.90;;;;;;5021981;28;20452;-74
2022/11/28 02:54:25;;;;;;;9.65;8.75;;;6.50;99.90;;;;;;5013822;28;20451;-74
2022/11/28 02:56:53;;;;;;;8.38;7.57;;;6.40;99.90;;;;;;5021409;28;20493;-73
2022/11/28 02:59:33;;;;;;;8.35;7.45;;;6.40;99.90;;;;;;5019142;28;20449;-74
2022/11/28 03:02:01;;;;;;;8.15;7.35;;;6.50;99.90;;;;;;5019849;28;20437;-74
2022/11/28 03:04:38;;;;;;;8.10;7.40;;;6.40;99.90;;;;;;5015598;28;20436;-74
2022/11/28 03:07:15;;;;;;;8.00;7.20;;;6.40;99.90;;;;;;5022841;28;20427;-74
2022/11/28 03:09:56;;;;;;;8.70;7.80;;;6.40;99.90;;;;;;5018965;28;20438;-74
2022/11/28 03:12:31;;;;;;;9.07;7.78;;;6.40;99.90;;;;;;5019014;28;20533;-74
2022/11/28 03:15:01;;;;;;;8.20;7.50;;;6.40;99.90;;;;;;5019478;28;20427;-74
2022/11/28 03:17:37;;;;;;;8.95;8.07;;;6.40;99.90;;;;;;5023573;28;20804;-74
2022/11/28 03:20:22;;;;;;;9.05;8.20;;;6.40;99.90;;;;;;5023414;28;20913;-74
2022/11/28 03:23:03;;;;;;;8.60;7.80;;;6.40;99.90;;;;;;5017517;28;20885;-74
2022/11/28 03:25:36;;;;;;;8.70;7.80;;;6.40;99.90;;;;;;5016202;28;20434;-74
2022/11/28 03:28:09;;;;;;;8.70;7.90;;;6.40;99.90;;;;;;5018589;28;20992;-74
2022/11/28 03:30:42;;;;;;;8.50;7.70;;;6.40;99.90;;;;;;5018640;28;20433;-74
2022/11/28 03:33:10;;;;;;;8.70;7.80;;;6.40;99.90;;;;;;5019622;28;20449;-74
2022/11/28 03:35:47;;;;;;;8.98;8.10;;;6.40;99.90;;;;;;5022416;28;20435;-74
2022/11/28 03:38:21;;;;;;;8.95;8.10;;;6.40;99.80;;;;;;5022697;28;20522;-75
2022/11/28 03:40:54;;;;;;;9.07;8.27;;;6.40;99.80;;;;;;5035953;28;20445;-77
2022/11/28 03:43:25;;;;;;;8.90;7.85;;;6.40;99.80;;;;;;5039253;28;20473;-74
2022/11/28 03:45:56;;;;;;;8.88;7.97;;;6.40;99.80;;;;;;5021541;28;20458;-74
2022/11/28 03:48:27;;;;;;;9.63;8.63;;;6.40;99.80;;;;;;5020396;28;20432;-74
2022/11/28 03:51:02;;;;;;;8.68;7.78;;;6.40;99.90;;;;;;5022375;28;20434;-74
2022/11/28 03:53:36;;;;;;;8.60;7.80;;;6.40;99.90;;;;;;5021585;28;20959;-74
2022/11/28 03:56:09;;;;;;;9.00;8.10;;;6.40;99.90;;;;;;5020689;28;20532;-74
2022/11/28 03:58:39;;;;;;;8.98;8.13;;;6.40;99.90;;;;;;5017630;28;20440;-74
2022/11/28 04:01:17;;;;;;;10.07;8.95;;;6.40;99.90;;;;;;5018427;28;20501;-74
2022/11/28 04:03:54;;;;;;;9.57;8.60;;;6.40;99.90;;;;;;5020414;28;20439;-74
2022/11/28 04:06:26;;;;;;;9.40;8.60;;;6.40;99.90;;;;;;5017848;28;20434;-74
2022/11/28 04:09:00;;;;;;;10.30;9.30;;;6.40;99.90;;;;;;5019078;28;20428;-73
2022/11/28 04:11:32;;;;;;;9.80;8.90;;;6.40;99.90;;;;;;5025469;28;20461;-74
2022/11/28 04:14:04;;;;;;;10.40;9.32;;;6.30;99.90;;;;;;5022614;28;20430;-74
2022/11/28 04:16:36;;;;;;;12.60;10.00;;;6.30;99.90;;;;;;5019926;28;20434;-74
2022/11/28 04:19:06;;;;;;;10.20;9.30;;;6.30;99.90;;;;;;5021603;28;20442;-74
2022/11/28 04:21:40;;;;;;;10.77;9.80;;;6.30;99.90;;;;;;5023158;28;20438;-74
2022/11/28 04:24:12;;;;;;;10.60;9.50;;;6.30;99.90;;;;;;5018405;28;21130;-74
2022/11/28 04:26:43;;;;;;;10.13;9.23;;;6.30;99.90;;;;;;5013872;28;20477;-74
2022/11/28 04:29:13;;;;;;;10.77;9.70;;;6.30;99.90;;;;;;5020709;28;20437;-74
2022/11/28 04:31:43;;;;;;;10.60;9.70;;;6.20;99.90;;;;;;5018287;28;20948;-74
2022/11/28 04:34:14;;;;;;;10.57;9.57;;;6.20;99.90;;;;;;5013369;28;20442;-73
2022/11/28 04:36:43;;;;;;;10.73;9.80;;;6.20;99.90;;;;;;5018835;28;21107;-74
2022/11/28 04:39:14;;;;;;;11.27;10.27;;;6.20;99.90;;;;;;5014772;28;20438;-74
2022/11/28 04:41:45;;;;;;;10.80;9.80;;;6.20;99.90;;;;;;5023282;28;20427;-74
2022/11/28 04:44:15;;;;;;;10.45;9.45;;;6.20;99.90;;;;;;5020618;28;20439;-73
2022/11/28 04:46:47;;;;;;;11.05;9.95;;;6.10;99.90;;;;;;5017911;28;20426;-74
2022/11/28 04:49:14;;;;;;;10.50;9.40;;;6.10;99.90;;;;;;5022231;28;20482;-74
2022/11/28 04:51:50;;;;;;;10.05;9.15;;;6.10;99.90;;;;;;5021669;28;20438;-74
2022/11/28 04:54:24;;;;;;;10.40;9.40;;;6.10;99.90;;;;;;5018062;28;20440;-73
2022/11/28 04:56:57;;;;;;;11.60;10.40;;;6.10;99.90;;;;;;5016692;28;20783;-73
2022/11/28 04:59:27;;;;;;;11.90;10.70;;;6.10;99.90;;;;;;5016202;28;20433;-73
2022/11/28 05:01:57;;;;;;;10.55;9.45;;;6.10;99.90;;;;;;5019208;28;20434;-73
2022/11/28 05:04:24;;;;;;;10.20;9.20;;;6.10;99.90;;;;;;5023798;28;20510;-73
2022/11/28 05:07:01;;;;;;;10.90;9.90;;;6.10;99.90;;;;;;5025047;28;20427;-73
2022/11/28 05:09:27;;;;;;;10.68;9.65;;;6.10;99.90;;;;;;5017967;28;20490;-73
2022/11/28 05:11:54;;;;;;;10.63;9.55;;;6.10;99.90;;;;;;5023424;28;20431;-73
2022/11/28 05:14:22;;;;;;;10.35;9.35;;;6.10;99.90;;;;;;5023368;28;20457;-73
2022/11/28 05:16:49;;;;;;;10.20;9.30;;;6.10;99.90;;;;;;5024013;28;20442;-73
2022/11/28 05:19:16;;;;;;;10.88;9.80;;;6.10;99.90;;;;;;5023149;28;20421;-74
2022/11/28 05:21:43;;;;;;;10.10;9.10;;;6.10;99.90;;;;;;5039042;28;20521;-74
2022/11/28 05:24:11;;;;;;;9.70;8.80;;;6.10;99.90;;;;;;5035256;28;20489;-74
2022/11/28 05:26:38;;;;;;;10.35;9.45;;;6.10;99.90;;;;;;5025413;28;20801;-74
2022/11/28 05:29:06;;;;;;;10.95;9.95;;;6.10;99.90;;;;;;5022283;28;20445;-74
2022/11/28 05:31:32;;;;;;;9.93;9.02;;;6.10;99.90;;;;;;5017551;28;20492;-74
2022/11/28 05:33:59;;;;;;;9.88;9.05;;;6.10;99.90;;;;;;5020056;28;20456;-77
2022/11/28 05:36:26;;;;;;;10.90;9.80;;;6.10;99.90;;;;;;5023024;28;20462;-76
2022/11/28 05:38:53;;;;;;;9.90;9.10;;;6.10;99.90;;;;;;5020620;28;20441;-76
2022/11/28 05:41:23;;;;;;;10.70;9.70;;;6.10;99.90;;;;;;5016775;28;20497;-78
2022/11/28 05:43:50;;;;;;;10.50;9.50;;;6.10;99.90;;;;;;5019868;28;20435;-79
2022/11/28 05:46:17;;;;;;;10.50;9.50;;;6.10;99.90;;;;;;5014974;28;20432;-77
2022/11/28 05:48:44;;;;;;;10.60;9.60;;;6.10;99.90;;;;;;5021349;28;20429;-77
2022/11/28 05:51:11;;;;;;;9.63;8.68;;;6.10;99.90;;;;;;5020504;28;20439;-78
2022/11/28 05:53:38;;;;;;;10.73;9.73;;;6.10;99.90;;;;;;5019723;28;20437;-78
2022/11/28 05:56:08;;;;;;;10.55;9.60;;;6.20;99.90;;;;;;5021486;28;20443;-78
2022/11/28 05:58:37;;;;;;;11.15;10.15;;;6.10;99.70;;;;;;5020306;28;20435;-77
2022/11/28 06:01:12;;;;;;;10.20;9.30;;;6.10;99.80;;;;;;5015317;28;20447;-76
2022/11/28 06:03:40;;;;;;;10.05;9.00;;;6.10;99.80;;;;;;5008624;28;20459;-76
2022/11/28 06:06:12;;;;;;;11.00;9.90;;;6.10;99.80;;;;;;5014586;28;20458;-77
2022/11/28 06:08:39;;;;;;;10.00;9.20;;;6.20;99.50;;;;;;5015244;28;20585;-77
2022/11/28 06:11:06;;;;;;;9.50;8.70;;;6.10;99.40;;;;;;5018113;28;20913;-76
2022/11/28 06:13:33;;;;;;;9.95;9.05;;;6.10;99.20;;;;;;5020526;28;20433;-77
2022/11/28 06:16:01;;;;;;;10.48;9.48;;;6.10;99.20;;;;;;5017644;28;20438;-77
2022/11/28 06:18:28;;;;;;;10.43;9.43;;;6.10;99.20;;;;;;5019579;28;20458;-77
2022/11/28 06:20:55;;;;;;;10.43;9.52;;;6.10;99.30;;;;;;5022491;28;20435;-77
2022/11/28 06:23:22;;;;;;;10.65;9.73;;;6.10;99.20;;;;;;5022168;28;20441;-77
2022/11/28 06:25:48;;;;;;;10.70;9.70;;;6.10;98.90;;;;;;5023314;28;20503;-77
2022/11/28 06:28:15;;;;;;;12.00;10.80;;;6.10;99.00;;;;;;5021329;28;20549;-77
2022/11/28 06:30:43;;;;;;;12.20;11.10;;;6.10;99.20;;;;;;5021701;28;20523;-77
2022/11/28 06:33:11;;;;;;;11.68;10.48;;;6.10;99.50;;;;;;5022038;28;20904;-76
2022/11/28 06:35:38;;;;;;;13.88;12.00;;;6.00;99.90;;;;;;5017368;28;20420;-76
2022/11/28 06:38:05;;;;;;;13.93;12.48;;;6.00;99.90;;;;;;5022747;28;20430;-77
2022/11/28 06:40:32;;;;;;;12.25;11.05;;;6.00;99.90;;;;;;5020145;28;20435;-76
2022/11/28 06:42:59;;;;;;;11.52;10.43;;;6.00;99.80;;;;;;5021430;28;20529;-77
2022/11/28 06:45:25;;;;;;;11.50;10.50;;;6.00;99.80;;;;;;5022854;28;20522;-76
2022/11/28 06:47:52;;;;;;;11.25;10.25;;;6.00;99.80;;;;;;5022994;28;20881;-77
2022/11/28 06:50:20;;;;;;;11.98;10.77;;;6.00;99.80;;;;;;5019716;28;20415;-77
2022/11/28 06:52:47;;;;;;;12.48;10.43;;;6.00;99.90;;;;;;5019945;28;20423;-77
2022/11/28 06:55:14;;;;;;;12.27;11.07;;;6.00;99.80;;;;;;5021888;28;20469;-77
2022/11/28 06:57:41;;;;;;;10.73;9.73;;;6.00;99.80;;;;;;5018727;28;20441;-77
2022/11/28 07:00:09;;;;;;;10.90;9.90;;;6.00;99.80;;;;;;5018485;28;20892;-77
2022/11/28 07:02:35;;;;;;;10.70;9.80;;;6.00;99.80;;;;;;5022946;28;20533;-77
2022/11/28 07:05:02;;;;;;;11.00;10.00;;;6.00;99.70;;;;;;5031287;28;21090;-76
2022/11/28 07:07:31;;;;;;;11.80;10.70;;;6.00;99.80;;;;;;5031721;28;20435;-77
2022/11/28 07:09:57;;;;;;;11.77;10.77;;;6.00;99.90;;;;;;5034763;28;20442;-76
2022/11/28 07:12:24;;;;;;;11.50;10.52;;;6.00;99.90;;;;;;5026481;28;20457;-76
2022/11/28 07:14:51;;;;;;;11.43;10.43;;;6.00;99.90;;;;;;5022846;28;20438;-77
2022/11/28 07:17:17;;;;;;;11.15;10.25;;;6.00;99.90;;;;;;5024818;28;20561;-76
2022/11/28 07:19:44;;;;;;;10.80;9.80;;;6.00;99.90;;;;;;5026021;28;20438;-77
2022/11/28 07:22:11;;;;;;;11.98;10.88;;;6.10;99.90;;;;;;5027340;28;20774;-77
2022/11/28 07:24:39;;;;;;;12.00;11.00;;;6.00;99.80;;;;;;5026557;28;20553;-78
2022/11/28 07:27:06;;;;;;;12.15;10.95;;;6.10;99.90;;;;;;5022225;28;20435;-64
2022/11/28 07:29:35;;;;;;;10.60;9.70;;;6.10;99.90;;;;;;5020784;28;20473;-64
2022/11/28 07:32:03;;;;;;;11.80;10.80;;;6.10;99.90;;;;;;5025692;28;21057;-64
2022/11/28 07:34:29;;;;;;;11.20;10.20;;;6.10;99.90;;;;;;5035313;28;20468;-77
2022/11/28 07:36:57;;;;;;;11.60;10.50;;;6.10;99.90;;;;;;5038222;28;20434;-77
2022/11/28 07:39:23;;;;;;;11.87;10.77;;;6.10;99.60;;;;;;5029162;28;20491;-76
2022/11/28 07:41:52;;;;;;;13.80;11.05;;;6.10;99.60;;;;;;5026566;28;20476;-77
2022/11/28 07:44:18;;;;;;;12.30;11.10;;;6.10;99.60;;;;;;5024772;28;20484;-77
2022/11/28 07:46:46;;;;;;;11.38;10.38;;;6.10;99.50;;;;;;5029966;28;20442;-78
2022/11/28 07:49:14;;;;;;;11.90;10.70;;;6.10;99.60;;;;;;5029600;28;20427;-80
2022/11/28 07:51:41;;;;;;;11.30;10.30;;;6.10;99.60;;;;;;5027992;28;20475;-79
2022/11/28 07:54:08;;;;;;;11.35;10.35;;;6.10;99.50;;;;;;5024647;28;20442;-79
2022/11/28 07:56:36;;;;;;;11.40;10.50;;;6.10;99.70;;;;;;5021911;28;20450;-80
2022/11/28 07:59:05;;;;;;;10.80;9.80;;;6.10;99.80;;;;;;5026673;28;20411;-78
2022/11/28 08:01:35;;;;;;;12.02;10.98;;;6.10;99.80;;;;;;5022642;28;20438;-78
2022/11/28 08:04:03;;;;;;;11.32;10.43;;;6.10;99.80;;;;;;5026047;28;20496;-78
2022/11/28 08:06:31;;;;;;;11.20;10.20;;;6.20;99.90;;;;;;5020512;28;20449;-77
2022/11/28 08:09:00;;;;;;;12.18;10.98;;;6.10;99.90;;;;;;5025087;28;20461;-77
2022/11/28 08:11:29;;;;;;;11.10;9.95;;;6.10;99.90;;;;;;5021764;28;20434;-77
2022/11/28 08:13:56;;;;;;;10.45;9.65;;;6.10;99.90;;;;;;5026062;28;20526;-77
2022/11/28 08:16:26;;;;;;;10.38;9.38;;;6.20;99.80;;;;;;5017850;28;20565;-77
2022/11/28 08:18:54;;;;;;;9.90;9.00;;;6.20;99.70;;;;;;5019426;28;20419;-77
2022/11/28 08:21:23;;;;;;;11.15;9.70;;;6.30;99.50;;;;;;5024411;28;20434;-77
2022/11/28 08:23:51;;;;;;;10.90;9.90;;;6.30;99.40;;;;;;5028387;28;20417;-78
2022/11/28 08:26:20;;;;;;;10.63;9.53;;;6.30;99.30;;;;;;5023236;28;21022;-78
2022/11/28 08:28:47;;;;;;;10.15;9.32;;;6.30;99.40;;;;;;5026401;28;20754;-77
2022/11/28 08:31:16;;;;;;;10.98;9.98;;;6.30;99.60;;;;;;5024382;28;20479;-78
2022/11/28 08:33:45;;;;;;;10.30;9.40;;;6.30;99.60;;;;;;5017047;28;20449;-77
2022/11/28 08:36:14;;;;;;;10.35;9.45;;;6.30;99.50;;;;;;5015634;28;20542;-78
2022/11/28 08:38:42;;;;;;;10.37;9.37;;;6.30;99.20;;;;;;5025178;28;20480;-78
2022/11/28 08:41:11;;;;;;;10.52;9.52;;;6.40;99.10;;;;;;5020114;28;20764;-78
2022/11/28 08:43:39;;;;;;;10.20;9.30;;;6.40;99.30;;;;;;5018674;28;20442;-78
2022/11/28 08:46:08;;;;;;;11.07;10.07;;;6.40;99.40;;;;;;5020022;28;20922;-79
2022/11/28 08:48:36;;;;;;;9.93;9.02;;;6.40;99.40;;;;;;5019838;28;20437;-78
2022/11/28 08:51:05;;;;;;;10.00;9.10;;;6.40;99.20;;;;;;5022359;28;20431;-77
2022/11/28 08:53:32;;;;;;;10.20;9.20;;;6.50;99.00;;;;;;5023220;28;20442;-79
2022/11/28 08:55:59;;;;;;;9.57;8.70;;;6.50;98.90;;;;;;5023555;28;20435;-78
2022/11/28 08:58:27;;;;;;;10.20;9.20;;;6.50;98.80;;;;;;5018110;28;20483;-79
2022/11/28 09:00:54;;;;;;;10.02;9.13;;;6.50;98.90;;;;;;5034858;28;20508;-79
2022/11/28 09:03:21;;;;;;;10.50;9.60;;;6.50;99.00;;;;;;5032924;28;20430;-79
2022/11/28 09:05:48;;;;;;;10.60;9.60;;;6.50;99.00;;;;;;5037149;28;20510;-78
2022/11/28 09:08:19;;;;;;;10.77;9.88;;;6.50;98.90;;;;;;5025456;28;20443;-79
2022/11/28 09:10:46;;;;;;;9.95;9.13;;;6.60;98.80;;;;;;5028721;28;20473;-79
2022/11/28 09:13:15;;;;;;;10.40;9.50;;;6.60;98.80;;;;;;5015814;28;20883;-78
2022/11/28 09:15:44;;;;;;;11.15;10.15;;;6.60;98.90;;;;;;5023267;28;20901;-78
2022/11/28 09:18:11;;;;;;;10.73;9.73;;;6.50;99.10;;;;;;5021581;28;20449;-78
2022/11/28 09:20:41;;;;;;;10.60;9.60;;;6.60;99.20;;;;;;5025252;28;20530;-78
2022/11/28 09:23:08;;;;;;;10.13;9.23;;;6.60;99.20;;;;;;5021052;28;20494;-79
2022/11/28 09:25:37;;;;;;;10.50;9.60;;;6.60;98.90;;;;;;5020880;28;20932;-79
2022/11/28 09:28:03;;;;;;;10.65;9.75;;;6.70;99.00;;;;;;5023978;28;20438;-79
2022/11/28 09:30:30;;;;;;;10.50;9.50;;;6.70;98.80;;;;;;5025608;28;20439;-79
2022/11/28 09:32:57;;;;;;;10.00;9.13;;;6.70;98.60;;;;;;5022072;28;20445;-79
2022/11/28 09:35:25;;;;;;;10.25;9.35;;;6.70;98.30;;;;;;5022457;28;20431;-78
2022/11/28 09:37:52;;;;;;;9.80;9.00;;;6.70;98.20;;;;;;5022443;28;20545;-79
2022/11/28 09:40:23;;;;;;;11.00;10.10;;;6.70;98.40;;;;;;5017618;28;20493;-77
2022/11/28 09:42:51;;;;;;;10.38;9.48;;;6.70;98.50;;;;;;5022986;28;21052;-78
2022/11/28 09:45:20;;;;;;;10.35;9.45;;;6.70;98.50;;;;;;5022709;28;20444;-78
2022/11/28 09:47:51;;;;;;;10.10;9.30;;;6.70;98.60;;;;;;5023604;28;20430;-78
2022/11/28 09:50:22;;;;;;;10.40;9.40;;;6.70;98.40;;;;;;5022551;28;20427;-78
2022/11/28 09:52:55;;;;;;;10.63;9.63;;;6.70;98.60;;;;;;5023108;28;20465;-78
2022/11/28 09:55:31;;;;;;;10.25;9.35;;;6.70;98.60;;;;;;5022596;28;20577;-78
2022/11/28 09:58:05;;;;;;;10.07;9.18;;;6.80;98.30;;;;;;5024350;28;20479;-78
2022/11/28 10:00:36;;;;;;;10.60;9.50;;;6.80;98.40;;;;;;5018181;28;20530;-79
2022/11/28 10:03:19;;;;;;;10.70;9.70;;;6.80;98.30;;;;;;5024155;28;20446;-78
2022/11/28 10:05:57;;;;;;;10.25;9.35;;;6.80;98.30;;;;;;5024099;28;20514;-78
2022/11/28 10:08:32;;;;;;;9.95;9.15;;;6.80;98.60;;;;;;5021084;28;20985;-79
2022/11/28 10:11:04;;;;;;;10.43;9.50;;;6.80;98.40;;;;;;5016463;28;20680;-79
2022/11/28 10:13:41;;;;;;;10.55;9.55;;;6.90;98.40;;;;;;5015959;28;20458;-78
2022/11/28 10:16:13;;;;;;;12.00;9.40;;;6.90;98.50;;;;;;5023604;28;20476;-78
2022/11/28 10:18:47;;;;;;;11.20;10.00;;;6.90;98.30;;;;;;5024180;28;23937;-79
2022/11/28 10:21:24;;;;;;;10.40;9.35;;;6.90;98.30;;;;;;5023646;28;20885;-78
2022/11/28 10:23:59;;;;;;;10.90;10.00;;;6.90;98.40;;;;;;5021039;28;20503;-78
2022/11/28 10:26:32;;;;;;;10.90;10.00;;;6.90;98.30;;;;;;5022685;28;20442;-78
2022/11/28 10:29:03;;;;;;;9.82;8.93;;;6.90;98.50;;;;;;5025172;28;20540;-77
2022/11/28 10:31:37;;;;;;;11.43;10.32;;;7.00;98.60;;;;;;5020264;28;20451;-78
2022/11/28 10:34:11;;;;;;;10.10;9.10;;;7.00;98.40;;;;;;5020224;28;20471;-78
2022/11/28 10:36:50;;;;;;;10.38;9.40;;;7.00;98.40;;;;;;5022150;28;20434;-79
2022/11/28 10:39:18;;;;;;;10.40;9.50;;;7.00;98.20;;;;;;5027316;28;20454;-79
2022/11/28 10:42:10;;;;;;;9.77;8.98;;;7.00;98.10;;;;;;5036395;28;20456;-79
2022/11/28 10:45:13;;;;;;;10.73;9.73;;;7.00;98.10;;;;;;5036882;28;20473;-79
2022/11/28 10:48:01;;;;;;;9.73;8.93;;;7.10;97.90;;;;;;5034240;28;20937;-79
2022/11/28 10:50:36;;;;;;;10.30;9.30;;;7.10;97.90;;;;;;5035598;28;20434;-79
2022/11/28 10:53:09;;;;;;;10.90;10.00;;;7.10;98.00;;;;;;5044511;28;20729;-79
2022/11/28 10:55:44;;;;;;;11.18;10.18;;;7.20;97.90;;;;;;5042871;28;20525;-80
2022/11/28 10:58:21;;;;;;;11.25;10.05;;;7.20;97.90;;;;;;5043940;28;20893;-79
2022/11/28 11:00:53;;;;;;;11.32;10.13;;;7.20;97.80;;;;;;5043077;28;20475;-80
2022/11/28 11:03:25;;;;;;;10.25;9.25;;;7.20;97.90;;;;;;5041313;28;20464;-80
2022/11/28 11:05:52;;;;;;;11.00;9.90;;;7.20;98.00;;;;;;5041108;28;20936;-80
2022/11/28 11:08:21;;;;;;;11.00;9.90;;;7.20;98.00;;;;;;5040740;28;20426;-79
2022/11/28 11:10:50;;;;;;;11.57;10.50;;;7.20;98.00;;;;;;5034332;28;20463;-81
2022/11/28 11:13:21;;;;;;;11.63;10.52;;;7.20;98.20;;;;;;5040163;28;20448;-80
2022/11/28 11:15:52;;;;;;;11.13;10.13;;;7.20;98.40;;;;;;5039613;28;20454;-79
2022/11/28 11:18:26;;;;;;;10.90;9.90;;;7.20;98.60;;;;;;5032483;28;20849;-79
2022/11/28 11:21:07;;;;;;;11.65;10.55;;;7.20;98.50;;;;;;5029390;28;20435;-79
2022/11/28 11:23:34;;;;;;;11.57;10.38;;;7.20;98.60;;;;;;5028386;28;20435;-78
2022/11/28 11:26:01;;;;;;;12.32;11.05;;;7.20;98.80;;;;;;5025358;28;20431;-79
2022/11/28 11:28:40;;;;;;;12.40;11.25;;;7.20;99.10;;;;;;5027110;28;20421;-78
2022/11/28 11:31:18;;;;;;;12.02;10.82;;;7.10;99.30;;;;;;5027369;28;20439;-78
2022/11/28 11:33:45;;;;;;;11.65;10.60;;;7.20;99.40;;;;;;5024810;28;20419;-78
2022/11/28 11:36:26;;;;;;;13.02;11.63;;;7.20;99.40;;;;;;5026535;28;20446;-78
2022/11/28 11:39:07;;;;;;;12.90;11.70;;;7.10;99.60;;;;;;5027161;28;20873;-78
2022/11/28 11:41:34;;;;;;;12.50;11.20;;;7.10;99.70;;;;;;5024844;28;20438;-78
2022/11/28 11:44:28;;;;;;;12.25;11.10;;;7.10;99.90;;;;;;5028437;28;20482;-78
2022/11/28 11:46:57;;;;;;;13.00;11.70;;;7.10;99.90;;;;;;5028110;28;20478;-79
2022/11/28 11:49:32;;;;;;;13.32;11.93;;;7.00;99.90;;;;;;5028491;28;20962;-79
2022/11/28 11:52:01;;;;;;;13.03;11.80;;;7.10;99.90;;;;;;5024061;28;20528;-80
2022/11/28 11:54:28;;;;;;;12.95;11.75;;;7.10;99.90;;;;;;5026528;28;20877;-79
2022/11/28 11:56:56;;;;;;;13.90;12.60;;;7.00;99.90;;;;;;5027284;28;20923;-80
2022/11/28 11:59:31;;;;;;;12.77;11.57;;;7.00;99.90;;;;;;5028484;28;20434;-79
2022/11/28 12:02:02;;;;;;;13.90;12.50;;;7.10;99.90;;;;;;5026030;28;20434;-80
2022/11/28 12:04:33;;;;;;;14.48;13.18;;;7.10;99.90;;;;;;5025679;28;20542;-79
2022/11/28 12:07:04;;;;;;;13.93;12.48;;;7.00;99.90;;;;;;5019798;28;20450;-80
2022/11/28 12:09:36;;;;;;;13.30;12.20;;;7.10;99.90;;;;;;5024234;28;20444;-80
2022/11/28 12:12:13;;;;;;;14.40;13.10;;;7.10;99.90;;;;;;5025276;28;21313;-79
2022/11/28 12:14:40;;;;;;;13.80;12.40;;;7.10;99.90;;;;;;5028058;28;20990;-79
2022/11/28 12:17:36;;;;;;;13.70;12.30;;;7.10;99.90;;;;;;5024494;28;20439;-79
2022/11/28 12:20:21;;;;;;;13.47;12.30;;;7.10;99.90;;;;;;5025555;28;20437;-80
2022/11/28 12:22:55;;;;;;;13.18;11.88;;;7.20;99.90;;;;;;5041219;28;20434;-79
2022/11/28 12:25:33;;;;;;;14.70;13.20;;;7.20;99.90;;;;;;5034714;28;20427;-77
2022/11/28 12:28:10;;;;;;;13.37;12.07;;;7.20;99.90;;;;;;5026024;28;20514;-80
2022/11/28 12:30:52;;;;;;;13.63;12.32;;;7.20;99.90;;;;;;5024421;28;20570;-78
2022/11/28 12:33:37;;;;;;;13.02;11.73;;;7.20;99.90;;;;;;5021383;28;20480;-77
2022/11/28 12:36:18;;;;;;;12.48;11.07;;;7.30;99.90;;;;;;5020372;28;20518;-78
2022/11/28 12:39:16;;;;;;;13.88;12.48;;;7.30;99.90;;;;;;5019589;28;20440;-77
2022/11/28 12:42:01;;;;;;;12.85;11.65;;;7.30;99.90;;;;;;5016884;28;20442;-79
2022/11/28 12:44:41;;;;;;;12.82;11.63;;;7.30;99.90;;;;;;5023954;28;20510;-78
2022/11/28 12:47:14;;;;;;;12.88;11.68;;;7.30;99.90;;;;;;5023273;28;20434;-78
2022/11/28 12:49:53;;;;;;;12.87;11.60;;;7.30;99.90;;;;;;5022853;28;20526;-75
2022/11/28 12:52:26;;;;;;;13.27;11.98;;;7.30;99.90;;;;;;5021364;28;20447;-76
2022/11/28 12:55:05;;;;;;;12.38;11.18;;;7.30;99.90;;;;;;5026492;28;20472;-75
2022/11/28 12:57:37;;;;;;;13.15;11.95;;;7.30;99.90;;;;;;5022861;28;20442;-75
2022/11/28 13:00:10;;;;;;;13.20;11.90;;;7.30;99.90;;;;;;5023897;28;20444;-75
2022/11/28 13:02:50;;;;;;;13.68;12.38;;;7.40;99.90;;;;;;5020789;28;20460;-75
2022/11/28 13:05:41;;;;;;;13.07;11.82;;;7.40;99.90;;;;;;5024444;28;20480;-75
2022/11/28 13:08:21;;;;;;;14.40;13.07;;;7.40;99.90;;;;;;5021303;28;21005;-75